sensor_id;sensor_type;location;lat;lon;timestamp;temperature;humidity
19359;DHT22;9815;52.334;20.890;2023-04-24T00:01:35;11.40;87.10
19359;DHT22;9815;52.334;20.890;2023-04-24T00:04:04;11.30;89.20
19359;DHT22;9815;52.334;20.890;2023-04-24T00:06:33;11.30;90.80
19359;DHT22;9815;52.334;20.890;2023-04-24T00:09:01;11.20;92.00
19359;DHT22;9815;52.334;20.890;2023-04-24T00:11:31;11.10;91.90
19359;DHT22;9815;52.334;20.890;2023-04-24T00:13:59;11.40;94.20
19359;DHT22;9815;52.334;20.890;2023-04-24T00:16:28;11.30;92.80
19359;DHT22;9815;52.334;20.890;2023-04-24T00:18:56;11.30;92.70
19359;DHT22;9815;52.334;20.890;2023-04-24T00:21:25;11.10;93.80
19359;DHT22;9815;52.334;20.890;2023-04-24T00:23:53;11.10;94.30
19359;DHT22;9815;52.334;20.890;2023-04-24T00:26:22;11.10;94.60
19359;DHT22;9815;52.334;20.890;2023-04-24T00:28:52;11.00;95.40
19359;DHT22;9815;52.334;20.890;2023-04-24T00:31:20;10.90;96.80
19359;DHT22;9815;52.334;20.890;2023-04-24T00:33:49;10.80;96.90
19359;DHT22;9815;52.334;20.890;2023-04-24T00:36:17;10.80;97.10
19359;DHT22;9815;52.334;20.890;2023-04-24T00:38:46;10.70;97.60
19359;DHT22;9815;52.334;20.890;2023-04-24T00:41:14;10.70;97.60
19359;DHT22;9815;52.334;20.890;2023-04-24T00:43:43;10.70;98.60
19359;DHT22;9815;52.334;20.890;2023-04-24T00:46:13;10.60;99.90
19359;DHT22;9815;52.334;20.890;2023-04-24T00:48:43;10.50;99.90
19359;DHT22;9815;52.334;20.890;2023-04-24T00:51:11;10.50;99.90
19359;DHT22;9815;52.334;20.890;2023-04-24T00:53:39;10.50;99.90
19359;DHT22;9815;52.334;20.890;2023-04-24T00:56:08;10.50;99.90
19359;DHT22;9815;52.334;20.890;2023-04-24T00:58:36;10.50;99.90
19359;DHT22;9815;52.334;20.890;2023-04-24T01:01:06;10.50;99.90
19359;DHT22;9815;52.334;20.890;2023-04-24T01:03:35;10.40;99.90
19359;DHT22;9815;52.334;20.890;2023-04-24T01:06:05;10.50;99.90
19359;DHT22;9815;52.334;20.890;2023-04-24T01:08:34;10.30;99.90
19359;DHT22;9815;52.334;20.890;2023-04-24T01:11:04;10.30;99.90
19359;DHT22;9815;52.334;20.890;2023-04-24T01:13:33;10.30;99.90
19359;DHT22;9815;52.334;20.890;2023-04-24T01:16:02;10.30;99.90
19359;DHT22;9815;52.334;20.890;2023-04-24T01:18:30;10.30;99.90
19359;DHT22;9815;52.334;20.890;2023-04-24T01:21:03;10.20;99.90
19359;DHT22;9815;52.334;20.890;2023-04-24T01:23:33;10.20;99.90
19359;DHT22;9815;52.334;20.890;2023-04-24T01:26:01;10.20;99.90
19359;DHT22;9815;52.334;20.890;2023-04-24T01:28:30;10.20;99.90
19359;DHT22;9815;52.334;20.890;2023-04-24T01:30:58;10.10;99.90
19359;DHT22;9815;52.334;20.890;2023-04-24T01:33:27;10.10;99.90
19359;DHT22;9815;52.334;20.890;2023-04-24T01:35:55;10.10;99.90
19359;DHT22;9815;52.334;20.890;2023-04-24T01:38:24;10.10;99.90
19359;DHT22;9815;52.334;20.890;2023-04-24T01:40:53;10.10;99.90
19359;DHT22;9815;52.334;20.890;2023-04-24T01:43:24;10.00;99.90
19359;DHT22;9815;52.334;20.890;2023-04-24T01:45:52;10.00;99.90
19359;DHT22;9815;52.334;20.890;2023-04-24T01:48:20;10.00;99.90
19359;DHT22;9815;52.334;20.890;2023-04-24T01:50:49;9.90;99.90
19359;DHT22;9815;52.334;20.890;2023-04-24T01:53:17;9.90;99.90
19359;DHT22;9815;52.334;20.890;2023-04-24T01:55:45;9.80;99.90
19359;DHT22;9815;52.334;20.890;2023-04-24T01:58:16;9.80;99.90
19359;DHT22;9815;52.334;20.890;2023-04-24T02:00:44;9.70;99.90
19359;DHT22;9815;52.334;20.890;2023-04-24T02:03:13;9.60;99.90
19359;DHT22;9815;52.334;20.890;2023-04-24T02:05:43;9.60;99.90
19359;DHT22;9815;52.334;20.890;2023-04-24T02:08:12;9.50;99.90
19359;DHT22;9815;52.334;20.890;2023-04-24T02:10:40;9.50;99.90
19359;DHT22;9815;52.334;20.890;2023-04-24T02:13:08;9.50;99.90
19359;DHT22;9815;52.334;20.890;2023-04-24T02:15:38;9.40;99.90
19359;DHT22;9815;52.334;20.890;2023-04-24T02:18:07;9.20;99.90
19359;DHT22;9815;52.334;20.890;2023-04-24T02:20:35;9.20;99.90
19359;DHT22;9815;52.334;20.890;2023-04-24T02:23:03;9.20;99.90
19359;DHT22;9815;52.334;20.890;2023-04-24T02:25:32;9.20;99.90
19359;DHT22;9815;52.334;20.890;2023-04-24T02:28:01;9.20;99.90
19359;DHT22;9815;52.334;20.890;2023-04-24T02:30:29;9.20;99.90
19359;DHT22;9815;52.334;20.890;2023-04-24T02:32:59;9.20;99.90
19359;DHT22;9815;52.334;20.890;2023-04-24T02:35:27;9.20;99.90
19359;DHT22;9815;52.334;20.890;2023-04-24T02:37:56;9.20;99.90
19359;DHT22;9815;52.334;20.890;2023-04-24T02:40:24;9.20;99.90
19359;DHT22;9815;52.334;20.890;2023-04-24T02:42:52;9.20;99.90
19359;DHT22;9815;52.334;20.890;2023-04-24T02:45:20;9.10;99.90
19359;DHT22;9815;52.334;20.890;2023-04-24T02:47:48;9.10;99.90
19359;DHT22;9815;52.334;20.890;2023-04-24T02:50:18;9.20;99.90
19359;DHT22;9815;52.334;20.890;2023-04-24T02:52:46;9.10;99.90
19359;DHT22;9815;52.334;20.890;2023-04-24T02:55:14;9.10;99.90
19359;DHT22;9815;52.334;20.890;2023-04-24T02:57:42;9.00;99.90
19359;DHT22;9815;52.334;20.890;2023-04-24T03:00:12;8.90;99.90
19359;DHT22;9815;52.334;20.890;2023-04-24T03:02:40;8.90;99.90
19359;DHT22;9815;52.334;20.890;2023-04-24T03:05:09;9.00;99.90
19359;DHT22;9815;52.334;20.890;2023-04-24T03:07:40;9.10;99.90
19359;DHT22;9815;52.334;20.890;2023-04-24T03:10:09;8.90;99.90
19359;DHT22;9815;52.334;20.890;2023-04-24T03:12:37;8.90;99.90
19359;DHT22;9815;52.334;20.890;2023-04-24T03:15:07;8.90;99.90
19359;DHT22;9815;52.334;20.890;2023-04-24T03:17:36;8.90;99.90
19359;DHT22;9815;52.334;20.890;2023-04-24T03:20:06;8.90;99.90
19359;DHT22;9815;52.334;20.890;2023-04-24T03:22:36;8.90;99.90
19359;DHT22;9815;52.334;20.890;2023-04-24T03:25:09;9.00;99.90
19359;DHT22;9815;52.334;20.890;2023-04-24T03:27:37;9.00;99.90
19359;DHT22;9815;52.334;20.890;2023-04-24T03:30:26;9.00;99.90
19359;DHT22;9815;52.334;20.890;2023-04-24T03:32:58;9.10;99.90
19359;DHT22;9815;52.334;20.890;2023-04-24T03:35:29;9.10;99.90
19359;DHT22;9815;52.334;20.890;2023-04-24T03:38:01;9.20;99.90
19359;DHT22;9815;52.334;20.890;2023-04-24T03:40:51;9.20;99.90
19359;DHT22;9815;52.334;20.890;2023-04-24T03:43:48;9.30;99.90
19359;DHT22;9815;52.334;20.890;2023-04-24T03:46:17;9.40;99.90
19359;DHT22;9815;52.334;20.890;2023-04-24T03:48:52;9.50;99.90
19359;DHT22;9815;52.334;20.890;2023-04-24T03:51:26;9.60;99.90
19359;DHT22;9815;52.334;20.890;2023-04-24T03:54:00;9.60;99.90
19359;DHT22;9815;52.334;20.890;2023-04-24T03:56:31;9.70;99.90
19359;DHT22;9815;52.334;20.890;2023-04-24T03:59:01;9.70;99.90
19359;DHT22;9815;52.334;20.890;2023-04-24T04:01:30;9.70;99.90
19359;DHT22;9815;52.334;20.890;2023-04-24T04:04:03;9.80;99.90
19359;DHT22;9815;52.334;20.890;2023-04-24T04:06:32;10.00;99.90
19359;DHT22;9815;52.334;20.890;2023-04-24T04:09:01;10.10;99.90
19359;DHT22;9815;52.334;20.890;2023-04-24T04:11:31;10.20;99.90
19359;DHT22;9815;52.334;20.890;2023-04-24T04:13:59;10.30;99.90
19359;DHT22;9815;52.334;20.890;2023-04-24T04:16:28;10.40;99.90
19359;DHT22;9815;52.334;20.890;2023-04-24T04:19:02;10.50;99.90
19359;DHT22;9815;52.334;20.890;2023-04-24T04:21:30;10.60;99.90
19359;DHT22;9815;52.334;20.890;2023-04-24T04:24:23;10.80;99.90
19359;DHT22;9815;52.334;20.890;2023-04-24T04:26:54;10.90;99.90
19359;DHT22;9815;52.334;20.890;2023-04-24T04:29:29;11.10;99.90
19359;DHT22;9815;52.334;20.890;2023-04-24T04:31:58;11.10;99.90
19359;DHT22;9815;52.334;20.890;2023-04-24T04:34:27;11.30;99.90
19359;DHT22;9815;52.334;20.890;2023-04-24T04:36:57;11.40;99.90
19359;DHT22;9815;52.334;20.890;2023-04-24T04:39:44;11.40;99.90
19359;DHT22;9815;52.334;20.890;2023-04-24T04:42:20;11.60;99.90
19359;DHT22;9815;52.334;20.890;2023-04-24T04:44:50;11.70;99.90
19359;DHT22;9815;52.334;20.890;2023-04-24T04:47:25;11.90;99.90
19359;DHT22;9815;52.334;20.890;2023-04-24T04:49:56;11.80;99.90
19359;DHT22;9815;52.334;20.890;2023-04-24T04:52:27;12.00;99.30
19359;DHT22;9815;52.334;20.890;2023-04-24T04:55:04;12.10;98.70
19359;DHT22;9815;52.334;20.890;2023-04-24T04:58:03;12.30;95.90
19359;DHT22;9815;52.334;20.890;2023-04-24T05:00:32;12.40;92.40
19359;DHT22;9815;52.334;20.890;2023-04-24T05:03:07;12.60;93.10
19359;DHT22;9815;52.334;20.890;2023-04-24T05:05:51;12.70;92.00
19359;DHT22;9815;52.334;20.890;2023-04-24T05:08:21;12.80;84.30
19359;DHT22;9815;52.334;20.890;2023-04-24T05:10:54;12.90;81.90
19359;DHT22;9815;52.334;20.890;2023-04-24T05:13:26;13.10;76.30
19359;DHT22;9815;52.334;20.890;2023-04-24T05:16:10;13.30;74.50
19359;DHT22;9815;52.334;20.890;2023-04-24T05:18:38;13.50;74.90
19359;DHT22;9815;52.334;20.890;2023-04-24T05:21:09;13.70;67.80
19359;DHT22;9815;52.334;20.890;2023-04-24T05:23:40;14.00;64.50
19359;DHT22;9815;52.334;20.890;2023-04-24T05:26:11;14.20;58.70
19359;DHT22;9815;52.334;20.890;2023-04-24T05:28:42;14.30;52.80
19359;DHT22;9815;52.334;20.890;2023-04-24T05:31:11;14.50;55.30
19359;DHT22;9815;52.334;20.890;2023-04-24T05:33:40;14.60;51.30
19359;DHT22;9815;52.334;20.890;2023-04-24T05:36:10;14.60;49.50
19359;DHT22;9815;52.334;20.890;2023-04-24T05:38:39;14.70;48.00
19359;DHT22;9815;52.334;20.890;2023-04-24T05:41:07;14.70;51.50
19359;DHT22;9815;52.334;20.890;2023-04-24T05:43:36;14.80;50.80
19359;DHT22;9815;52.334;20.890;2023-04-24T05:46:07;14.90;48.10
19359;DHT22;9815;52.334;20.890;2023-04-24T05:48:36;15.00;49.10
19359;DHT22;9815;52.334;20.890;2023-04-24T05:51:04;15.20;47.40
19359;DHT22;9815;52.334;20.890;2023-04-24T05:53:33;15.30;43.90
19359;DHT22;9815;52.334;20.890;2023-04-24T05:56:01;15.40;44.60
19359;DHT22;9815;52.334;20.890;2023-04-24T05:58:30;15.50;44.30
19359;DHT22;9815;52.334;20.890;2023-04-24T06:00:58;15.60;39.60
19359;DHT22;9815;52.334;20.890;2023-04-24T06:03:30;15.60;41.30
19359;DHT22;9815;52.334;20.890;2023-04-24T06:05:58;15.70;40.80
19359;DHT22;9815;52.334;20.890;2023-04-24T06:08:27;15.60;38.50
19359;DHT22;9815;52.334;20.890;2023-04-24T06:10:55;15.70;37.80
19359;DHT22;9815;52.334;20.890;2023-04-24T06:13:24;15.70;38.00
19359;DHT22;9815;52.334;20.890;2023-04-24T06:16:14;15.80;38.80
19359;DHT22;9815;52.334;20.890;2023-04-24T06:18:48;15.80;37.90
19359;DHT22;9815;52.334;20.890;2023-04-24T06:21:18;15.90;36.90
19359;DHT22;9815;52.334;20.890;2023-04-24T06:23:49;16.10;36.50
19359;DHT22;9815;52.334;20.890;2023-04-24T06:26:18;16.30;35.50
19359;DHT22;9815;52.334;20.890;2023-04-24T06:28:46;16.60;34.40
19359;DHT22;9815;52.334;20.890;2023-04-24T06:31:15;16.80;33.30
19359;DHT22;9815;52.334;20.890;2023-04-24T06:33:43;17.20;30.80
19359;DHT22;9815;52.334;20.890;2023-04-24T06:36:13;17.30;30.10
19359;DHT22;9815;52.334;20.890;2023-04-24T06:38:41;17.50;29.30
19359;DHT22;9815;52.334;20.890;2023-04-24T06:41:11;17.60;29.10
19359;DHT22;9815;52.334;20.890;2023-04-24T06:43:39;17.80;28.00
19359;DHT22;9815;52.334;20.890;2023-04-24T06:46:08;17.90;26.60
19359;DHT22;9815;52.334;20.890;2023-04-24T06:48:36;18.00;26.60
19359;DHT22;9815;52.334;20.890;2023-04-24T06:51:05;18.20;27.40
19359;DHT22;9815;52.334;20.890;2023-04-24T06:53:34;18.40;27.00
19359;DHT22;9815;52.334;20.890;2023-04-24T06:56:03;18.40;26.50
19359;DHT22;9815;52.334;20.890;2023-04-24T06:58:32;18.60;26.60
19359;DHT22;9815;52.334;20.890;2023-04-24T07:01:00;18.80;27.80
19359;DHT22;9815;52.334;20.890;2023-04-24T07:03:28;18.90;29.00
19359;DHT22;9815;52.334;20.890;2023-04-24T07:05:57;19.00;28.70
19359;DHT22;9815;52.334;20.890;2023-04-24T07:08:26;19.00;28.00
19359;DHT22;9815;52.334;20.890;2023-04-24T07:10:57;19.10;29.20
19359;DHT22;9815;52.334;20.890;2023-04-24T07:13:25;19.20;28.60
19359;DHT22;9815;52.334;20.890;2023-04-24T07:15:54;19.30;27.00
19359;DHT22;9815;52.334;20.890;2023-04-24T07:18:23;19.40;27.00
19359;DHT22;9815;52.334;20.890;2023-04-24T07:20:51;19.50;27.70
19359;DHT22;9815;52.334;20.890;2023-04-24T07:23:19;19.70;28.00
19359;DHT22;9815;52.334;20.890;2023-04-24T07:25:50;19.90;27.30
19359;DHT22;9815;52.334;20.890;2023-04-24T07:28:26;20.00;26.80
19359;DHT22;9815;52.334;20.890;2023-04-24T07:30:58;20.20;26.20
19359;DHT22;9815;52.334;20.890;2023-04-24T07:33:26;20.40;26.70
19359;DHT22;9815;52.334;20.890;2023-04-24T07:35:55;20.40;24.70
19359;DHT22;9815;52.334;20.890;2023-04-24T07:38:23;20.30;26.00
19359;DHT22;9815;52.334;20.890;2023-04-24T07:40:52;20.20;25.00
19359;DHT22;9815;52.334;20.890;2023-04-24T07:43:21;20.10;27.10
19359;DHT22;9815;52.334;20.890;2023-04-24T07:45:51;20.20;26.30
19359;DHT22;9815;52.334;20.890;2023-04-24T07:48:20;20.10;25.20
19359;DHT22;9815;52.334;20.890;2023-04-24T07:50:49;20.10;27.70
19359;DHT22;9815;52.334;20.890;2023-04-24T07:53:17;20.20;25.80
19359;DHT22;9815;52.334;20.890;2023-04-24T07:55:46;20.20;25.60
19359;DHT22;9815;52.334;20.890;2023-04-24T07:58:14;20.20;26.10
19359;DHT22;9815;52.334;20.890;2023-04-24T08:00:43;20.20;26.50
19359;DHT22;9815;52.334;20.890;2023-04-24T08:03:14;20.50;23.70
19359;DHT22;9815;52.334;20.890;2023-04-24T08:05:45;20.70;24.70
19359;DHT22;9815;52.334;20.890;2023-04-24T08:08:14;21.00;25.00
19359;DHT22;9815;52.334;20.890;2023-04-24T08:10:42;21.10;22.70
19359;DHT22;9815;52.334;20.890;2023-04-24T08:13:10;21.00;22.80
19359;DHT22;9815;52.334;20.890;2023-04-24T08:15:39;21.30;21.60
19359;DHT22;9815;52.334;20.890;2023-04-24T08:18:07;21.80;23.40
19359;DHT22;9815;52.334;20.890;2023-04-24T08:20:40;22.30;22.70
19359;DHT22;9815;52.334;20.890;2023-04-24T08:23:08;22.70;21.30
19359;DHT22;9815;52.334;20.890;2023-04-24T08:25:36;22.90;19.70
19359;DHT22;9815;52.334;20.890;2023-04-24T08:28:06;22.50;20.10
19359;DHT22;9815;52.334;20.890;2023-04-24T08:30:34;22.60;20.80
19359;DHT22;9815;52.334;20.890;2023-04-24T08:33:03;22.50;21.30
19359;DHT22;9815;52.334;20.890;2023-04-24T08:35:31;22.50;20.50
19359;DHT22;9815;52.334;20.890;2023-04-24T08:38:01;22.50;20.60
19359;DHT22;9815;52.334;20.890;2023-04-24T08:40:33;22.40;22.00
19359;DHT22;9815;52.334;20.890;2023-04-24T08:43:03;22.40;21.50
19359;DHT22;9815;52.334;20.890;2023-04-24T08:45:33;22.30;21.90
19359;DHT22;9815;52.334;20.890;2023-04-24T08:48:02;22.50;21.10
19359;DHT22;9815;52.334;20.890;2023-04-24T08:50:33;22.70;20.40
19359;DHT22;9815;52.334;20.890;2023-04-24T08:53:04;22.70;21.10
19359;DHT22;9815;52.334;20.890;2023-04-24T08:55:35;22.60;22.00
19359;DHT22;9815;52.334;20.890;2023-04-24T08:58:05;22.40;21.70
19359;DHT22;9815;52.334;20.890;2023-04-24T09:00:33;22.20;23.20
19359;DHT22;9815;52.334;20.890;2023-04-24T09:03:03;22.00;22.40
19359;DHT22;9815;52.334;20.890;2023-04-24T09:05:33;21.80;24.70
19359;DHT22;9815;52.334;20.890;2023-04-24T09:08:03;21.60;24.30
19359;DHT22;9815;52.334;20.890;2023-04-24T09:10:35;21.50;23.70
19359;DHT22;9815;52.334;20.890;2023-04-24T09:13:03;21.30;25.80
19359;DHT22;9815;52.334;20.890;2023-04-24T09:15:31;21.30;25.20
19359;DHT22;9815;52.334;20.890;2023-04-24T09:18:02;21.50;24.80
19359;DHT22;9815;52.334;20.890;2023-04-24T09:20:31;22.00;23.80
19359;DHT22;9815;52.334;20.890;2023-04-24T09:23:00;22.00;24.20
19359;DHT22;9815;52.334;20.890;2023-04-24T09:25:33;22.00;22.80
19359;DHT22;9815;52.334;20.890;2023-04-24T09:28:04;21.80;23.70
19359;DHT22;9815;52.334;20.890;2023-04-24T09:30:32;21.60;24.60
19359;DHT22;9815;52.334;20.890;2023-04-24T09:33:10;21.60;23.90
19359;DHT22;9815;52.334;20.890;2023-04-24T09:35:41;21.50;23.20
19359;DHT22;9815;52.334;20.890;2023-04-24T09:38:10;21.50;24.50
19359;DHT22;9815;52.334;20.890;2023-04-24T09:40:40;21.60;23.60
19359;DHT22;9815;52.334;20.890;2023-04-24T09:43:10;21.90;23.80
19359;DHT22;9815;52.334;20.890;2023-04-24T09:45:40;22.20;22.90
19359;DHT22;9815;52.334;20.890;2023-04-24T09:48:09;22.20;21.60
19359;DHT22;9815;52.334;20.890;2023-04-24T09:50:38;22.20;21.70
19359;DHT22;9815;52.334;20.890;2023-04-24T09:53:07;22.40;23.60
19359;DHT22;9815;52.334;20.890;2023-04-24T09:55:45;23.40;21.90
19359;DHT22;9815;52.334;20.890;2023-04-24T09:58:15;24.20;19.90
19359;DHT22;9815;52.334;20.890;2023-04-24T10:00:45;25.00;17.80
19359;DHT22;9815;52.334;20.890;2023-04-24T10:03:14;24.90;16.00
19359;DHT22;9815;52.334;20.890;2023-04-24T10:05:44;24.80;17.80
19359;DHT22;9815;52.334;20.890;2023-04-24T10:08:14;25.20;16.60
19359;DHT22;9815;52.334;20.890;2023-04-24T10:10:45;25.00;17.00
19359;DHT22;9815;52.334;20.890;2023-04-24T10:13:14;25.50;15.50
19359;DHT22;9815;52.334;20.890;2023-04-24T10:15:43;25.40;15.50
19359;DHT22;9815;52.334;20.890;2023-04-24T10:18:11;25.20;14.70
19359;DHT22;9815;52.334;20.890;2023-04-24T10:20:40;25.80;16.20
19359;DHT22;9815;52.334;20.890;2023-04-24T10:23:09;25.60;14.70
19359;DHT22;9815;52.334;20.890;2023-04-24T10:25:37;25.70;13.80
19359;DHT22;9815;52.334;20.890;2023-04-24T10:28:07;25.90;14.30
19359;DHT22;9815;52.334;20.890;2023-04-24T10:30:37;26.00;14.30
19359;DHT22;9815;52.334;20.890;2023-04-24T10:33:08;26.10;14.00
19359;DHT22;9815;52.334;20.890;2023-04-24T10:35:39;26.40;11.80
19359;DHT22;9815;52.334;20.890;2023-04-24T10:38:12;26.30;12.80
19359;DHT22;9815;52.334;20.890;2023-04-24T10:40:42;26.40;11.70
19359;DHT22;9815;52.334;20.890;2023-04-24T10:43:17;26.50;10.60
19359;DHT22;9815;52.334;20.890;2023-04-24T10:46:00;26.40;11.90
19359;DHT22;9815;52.334;20.890;2023-04-24T10:48:30;26.60;11.80
19359;DHT22;9815;52.334;20.890;2023-04-24T10:50:59;27.10;11.80
19359;DHT22;9815;52.334;20.890;2023-04-24T10:53:29;27.30;10.80
19359;DHT22;9815;52.334;20.890;2023-04-24T10:55:58;27.40;9.30
19359;DHT22;9815;52.334;20.890;2023-04-24T10:58:38;27.50;9.40
19359;DHT22;9815;52.334;20.890;2023-04-24T11:01:07;27.40;9.00
19359;DHT22;9815;52.334;20.890;2023-04-24T11:03:36;27.50;8.70
19359;DHT22;9815;52.334;20.890;2023-04-24T11:06:06;27.70;8.20
19359;DHT22;9815;52.334;20.890;2023-04-24T11:08:39;27.60;9.40
19359;DHT22;9815;52.334;20.890;2023-04-24T11:11:12;27.40;9.50
19359;DHT22;9815;52.334;20.890;2023-04-24T11:14:06;27.40;10.20
19359;DHT22;9815;52.334;20.890;2023-04-24T11:16:38;27.60;9.80
19359;DHT22;9815;52.334;20.890;2023-04-24T11:19:08;27.10;10.10
19359;DHT22;9815;52.334;20.890;2023-04-24T11:21:42;26.90;10.80
19359;DHT22;9815;52.334;20.890;2023-04-24T11:24:32;27.40;10.90
19359;DHT22;9815;52.334;20.890;2023-04-24T11:27:07;27.70;10.20
19359;DHT22;9815;52.334;20.890;2023-04-24T11:29:41;28.00;10.00
19359;DHT22;9815;52.334;20.890;2023-04-24T11:32:15;28.10;9.80
19359;DHT22;9815;52.334;20.890;2023-04-24T11:34:47;28.20;10.30
19359;DHT22;9815;52.334;20.890;2023-04-24T11:37:15;28.40;10.70
19359;DHT22;9815;52.334;20.890;2023-04-24T11:39:44;28.00;11.10
19359;DHT22;9815;52.334;20.890;2023-04-24T11:42:14;28.00;10.80
19359;DHT22;9815;52.334;20.890;2023-04-24T11:44:44;27.90;10.70
19359;DHT22;9815;52.334;20.890;2023-04-24T11:47:14;27.90;9.60
19359;DHT22;9815;52.334;20.890;2023-04-24T11:49:42;28.20;9.10
19359;DHT22;9815;52.334;20.890;2023-04-24T11:52:11;28.30;9.00
19359;DHT22;9815;52.334;20.890;2023-04-24T11:54:47;28.00;7.80
19359;DHT22;9815;52.334;20.890;2023-04-24T11:57:16;27.20;8.20
19359;DHT22;9815;52.334;20.890;2023-04-24T11:59:50;26.30;9.50
19359;DHT22;9815;52.334;20.890;2023-04-24T12:02:25;25.40;10.00
19359;DHT22;9815;52.334;20.890;2023-04-24T12:04:54;24.90;11.20
19359;DHT22;9815;52.334;20.890;2023-04-24T12:07:24;24.70;12.00
19359;DHT22;9815;52.334;20.890;2023-04-24T12:09:56;24.80;12.30
19359;DHT22;9815;52.334;20.890;2023-04-24T12:12:27;25.20;12.00
19359;DHT22;9815;52.334;20.890;2023-04-24T12:14:58;25.40;10.60
19359;DHT22;9815;52.334;20.890;2023-04-24T12:17:28;24.90;11.80
19359;DHT22;9815;52.334;20.890;2023-04-24T12:19:59;24.40;11.90
19359;DHT22;9815;52.334;20.890;2023-04-24T12:22:43;24.00;12.50
19359;DHT22;9815;52.334;20.890;2023-04-24T12:25:12;23.70;12.10
19359;DHT22;9815;52.334;20.890;2023-04-24T12:27:41;23.50;13.00
19359;DHT22;9815;52.334;20.890;2023-04-24T12:30:13;23.30;12.70
19359;DHT22;9815;52.334;20.890;2023-04-24T12:32:45;23.30;13.40
19359;DHT22;9815;52.334;20.890;2023-04-24T12:35:19;23.20;12.90
19359;DHT22;9815;52.334;20.890;2023-04-24T12:37:50;23.10;14.10
19359;DHT22;9815;52.334;20.890;2023-04-24T12:40:19;23.10;13.00
19359;DHT22;9815;52.334;20.890;2023-04-24T12:42:49;23.40;12.80
19359;DHT22;9815;52.334;20.890;2023-04-24T12:45:19;24.10;11.80
19359;DHT22;9815;52.334;20.890;2023-04-24T12:47:50;25.00;11.60
19359;DHT22;9815;52.334;20.890;2023-04-24T12:50:18;25.70;11.10
19359;DHT22;9815;52.334;20.890;2023-04-24T12:52:47;25.60;10.40
19359;DHT22;9815;52.334;20.890;2023-04-24T12:55:15;25.30;10.50
19359;DHT22;9815;52.334;20.890;2023-04-24T12:57:44;24.90;10.60
19359;DHT22;9815;52.334;20.890;2023-04-24T13:00:13;24.40;10.70
19359;DHT22;9815;52.334;20.890;2023-04-24T13:02:45;23.80;11.30
19359;DHT22;9815;52.334;20.890;2023-04-24T13:05:13;23.20;13.60
19359;DHT22;9815;52.334;20.890;2023-04-24T13:07:42;22.30;16.10
19359;DHT22;9815;52.334;20.890;2023-04-24T13:10:10;21.90;17.70
19359;DHT22;9815;52.334;20.890;2023-04-24T13:12:40;21.50;18.60
19359;DHT22;9815;52.334;20.890;2023-04-24T13:15:12;20.80;19.60
19359;DHT22;9815;52.334;20.890;2023-04-24T13:17:40;20.30;20.40
19359;DHT22;9815;52.334;20.890;2023-04-24T13:20:10;20.10;21.00
19359;DHT22;9815;52.334;20.890;2023-04-24T13:22:38;19.80;21.30
19359;DHT22;9815;52.334;20.890;2023-04-24T13:25:07;19.60;21.90
19359;DHT22;9815;52.334;20.890;2023-04-24T13:27:37;19.50;21.90
19359;DHT22;9815;52.334;20.890;2023-04-24T13:30:07;19.30;22.80
19359;DHT22;9815;52.334;20.890;2023-04-24T13:32:35;19.30;22.50
19359;DHT22;9815;52.334;20.890;2023-04-24T13:35:04;19.20;21.90
19359;DHT22;9815;52.334;20.890;2023-04-24T13:37:33;19.20;22.00
19359;DHT22;9815;52.334;20.890;2023-04-24T13:40:02;19.20;22.00
19359;DHT22;9815;52.334;20.890;2023-04-24T13:42:33;19.10;22.00
19359;DHT22;9815;52.334;20.890;2023-04-24T13:45:01;19.10;21.90
19359;DHT22;9815;52.334;20.890;2023-04-24T13:47:50;19.20;21.50
19359;DHT22;9815;52.334;20.890;2023-04-24T13:50:19;19.30;21.50
19359;DHT22;9815;52.334;20.890;2023-04-24T13:52:49;19.40;21.10
19359;DHT22;9815;52.334;20.890;2023-04-24T13:55:17;19.50;20.90
19359;DHT22;9815;52.334;20.890;2023-04-24T13:57:45;19.70;20.50
19359;DHT22;9815;52.334;20.890;2023-04-24T14:00:16;19.90;20.70
19359;DHT22;9815;52.334;20.890;2023-04-24T14:02:46;20.30;19.80
19359;DHT22;9815;52.334;20.890;2023-04-24T14:05:16;20.50;19.70
19359;DHT22;9815;52.334;20.890;2023-04-24T14:07:45;20.80;18.90
19359;DHT22;9815;52.334;20.890;2023-04-24T14:10:14;21.20;17.50
19359;DHT22;9815;52.334;20.890;2023-04-24T14:12:43;21.40;17.10
19359;DHT22;9815;52.334;20.890;2023-04-24T14:15:11;21.60;16.20
19359;DHT22;9815;52.334;20.890;2023-04-24T14:17:40;21.60;15.80
19359;DHT22;9815;52.334;20.890;2023-04-24T14:20:09;21.60;16.20
19359;DHT22;9815;52.334;20.890;2023-04-24T14:22:37;21.60;16.50
19359;DHT22;9815;52.334;20.890;2023-04-24T14:25:06;21.60;15.90
19359;DHT22;9815;52.334;20.890;2023-04-24T14:27:36;21.80;16.00
19359;DHT22;9815;52.334;20.890;2023-04-24T14:30:06;22.20;15.50
19359;DHT22;9815;52.334;20.890;2023-04-24T14:32:35;22.70;14.60
19359;DHT22;9815;52.334;20.890;2023-04-24T14:35:04;23.00;12.70
19359;DHT22;9815;52.334;20.890;2023-04-24T14:37:33;23.50;12.60
19359;DHT22;9815;52.334;20.890;2023-04-24T14:40:01;23.90;11.70
19359;DHT22;9815;52.334;20.890;2023-04-24T14:42:52;24.00;11.50
19359;DHT22;9815;52.334;20.890;2023-04-24T14:45:21;23.50;11.60
19359;DHT22;9815;52.334;20.890;2023-04-24T14:47:49;23.20;12.30
19359;DHT22;9815;52.334;20.890;2023-04-24T14:50:18;22.80;12.20
19359;DHT22;9815;52.334;20.890;2023-04-24T14:52:49;22.40;13.20
19359;DHT22;9815;52.334;20.890;2023-04-24T14:55:17;22.10;13.90
19359;DHT22;9815;52.334;20.890;2023-04-24T14:57:46;21.80;14.70
19359;DHT22;9815;52.334;20.890;2023-04-24T15:00:17;21.60;15.10
19359;DHT22;9815;52.334;20.890;2023-04-24T15:02:47;21.30;15.90
19359;DHT22;9815;52.334;20.890;2023-04-24T15:05:15;21.30;16.20
19359;DHT22;9815;52.334;20.890;2023-04-24T15:07:44;21.40;15.60
19359;DHT22;9815;52.334;20.890;2023-04-24T15:10:12;21.60;16.20
19359;DHT22;9815;52.334;20.890;2023-04-24T15:12:40;21.80;16.70
19359;DHT22;9815;52.334;20.890;2023-04-24T15:15:09;21.80;15.60
19359;DHT22;9815;52.334;20.890;2023-04-24T15:17:39;22.00;15.30
19359;DHT22;9815;52.334;20.890;2023-04-24T15:20:08;22.30;14.20
19359;DHT22;9815;52.334;20.890;2023-04-24T15:22:36;22.80;13.30
19359;DHT22;9815;52.334;20.890;2023-04-24T15:25:06;23.20;13.60
19359;DHT22;9815;52.334;20.890;2023-04-24T15:27:41;23.40;13.20
19359;DHT22;9815;52.334;20.890;2023-04-24T15:30:10;23.50;12.80
19359;DHT22;9815;52.334;20.890;2023-04-24T15:32:40;23.30;12.90
19359;DHT22;9815;52.334;20.890;2023-04-24T15:35:09;23.20;12.80
19359;DHT22;9815;52.334;20.890;2023-04-24T15:37:38;23.10;12.80
19359;DHT22;9815;52.334;20.890;2023-04-24T15:40:07;23.40;12.40
19359;DHT22;9815;52.334;20.890;2023-04-24T15:42:38;23.00;14.20
19359;DHT22;9815;52.334;20.890;2023-04-24T15:45:07;23.00;13.30
19359;DHT22;9815;52.334;20.890;2023-04-24T15:47:36;22.80;14.90
19359;DHT22;9815;52.334;20.890;2023-04-24T15:50:06;22.80;12.60
19359;DHT22;9815;52.334;20.890;2023-04-24T15:52:40;23.00;12.80